sensor_id;sensor_type;location;lat;lon;timestamp;P1;durP1;ratioP1;P2;durP2;ratioP2
31974;SDS011;18500;43.618;1.474;2023-03-08T07:26:58;630.15;;;586.33;;
31974;SDS011;18500;43.618;1.474;2023-03-08T07:29:24;673.78;;;625.45;;
31974;SDS011;18500;43.618;1.474;2023-03-08T07:31:49;637.58;;;592.25;;
31974;SDS011;18500;43.618;1.474;2023-03-08T07:34:15;630.88;;;584.15;;
31974;SDS011;18500;43.618;1.474;2023-03-08T07:36:41;550.55;;;514.03;;
31974;SDS011;18500;43.618;1.474;2023-03-08T07:39:06;613.75;;;570.83;;
31974;SDS011;18500;43.618;1.474;2023-03-08T07:41:32;694.80;;;643.92;;
31974;SDS011;18500;43.618;1.474;2023-03-08T07:43:59;635.97;;;590.40;;
31974;SDS011;18500;43.618;1.474;2023-03-08T07:46:26;603.38;;;561.10;;
31974;SDS011;18500;43.618;1.474;2023-03-08T07:48:52;505.75;;;470.80;;
31974;SDS011;18500;43.618;1.474;2023-03-08T07:51:18;474.77;;;441.95;;
31974;SDS011;18500;43.618;1.474;2023-03-08T07:53:44;571.05;;;531.40;;
31974;SDS011;18500;43.618;1.474;2023-03-08T07:56:09;604.63;;;561.10;;
31974;SDS011;18500;43.618;1.474;2023-03-08T07:58:35;593.60;;;550.97;;
31974;SDS011;18500;43.618;1.474;2023-03-08T08:01:06;717.58;;;663.53;;
31974;SDS011;18500;43.618;1.474;2023-03-08T08:03:35;625.53;;;580.35;;
31974;SDS011;18500;43.618;1.474;2023-03-08T08:06:02;649.45;;;604.63;;
31974;SDS011;18500;43.618;1.474;2023-03-08T08:08:29;603.10;;;560.83;;
31974;SDS011;18500;43.618;1.474;2023-03-08T08:10:54;592.58;;;550.15;;
31974;SDS011;18500;43.618;1.474;2023-03-08T08:13:20;609.17;;;566.72;;
31974;SDS011;18500;43.618;1.474;2023-03-08T08:15:45;722.25;;;668.50;;
31974;SDS011;18500;43.618;1.474;2023-03-08T08:18:11;711.45;;;659.72;;
31974;SDS011;18500;43.618;1.474;2023-03-08T08:20:37;702.15;;;648.60;;
31974;SDS011;18500;43.618;1.474;2023-03-08T08:23:05;637.15;;;588.22;;
31974;SDS011;18500;43.618;1.474;2023-03-08T08:25:31;412.27;;;386.23;;
31974;SDS011;18500;43.618;1.474;2023-03-08T08:27:57;505.38;;;469.02;;
31974;SDS011;18500;43.618;1.474;2023-03-08T08:30:22;503.08;;;469.13;;
31974;SDS011;18500;43.618;1.474;2023-03-08T08:32:48;464.98;;;431.20;;
31974;SDS011;18500;43.618;1.474;2023-03-08T08:35:14;485.80;;;452.52;;
31974;SDS011;18500;43.618;1.474;2023-03-08T08:37:40;537.38;;;499.70;;
31974;SDS011;18500;43.618;1.474;2023-03-08T08:40:05;657.65;;;606.78;;
31974;SDS011;18500;43.618;1.474;2023-03-08T08:42:32;568.97;;;525.20;;
31974;SDS011;18500;43.618;1.474;2023-03-08T08:44:57;473.45;;;439.15;;
31974;SDS011;18500;43.618;1.474;2023-03-08T08:47:23;528.72;;;489.73;;
31974;SDS011;18500;43.618;1.474;2023-03-08T08:49:50;606.42;;;559.88;;
31974;SDS011;18500;43.618;1.474;2023-03-08T08:52:16;618.10;;;571.67;;
31974;SDS011;18500;43.618;1.474;2023-03-08T08:54:42;613.33;;;567.00;;
31974;SDS011;18500;43.618;1.474;2023-03-08T08:57:07;571.85;;;529.45;;
31974;SDS011;18500;43.618;1.474;2023-03-08T08:59:33;544.72;;;503.65;;
31974;SDS011;18500;43.618;1.474;2023-03-08T09:01:59;671.38;;;617.97;;
31974;SDS011;18500;43.618;1.474;2023-03-08T09:04:24;594.17;;;548.00;;
31974;SDS011;18500;43.618;1.474;2023-03-08T09:06:50;652.83;;;599.80;;
31974;SDS011;18500;43.618;1.474;2023-03-08T09:09:17;809.47;;;742.35;;
31974;SDS011;18500;43.618;1.474;2023-03-08T09:11:43;651.90;;;601.22;;
31974;SDS011;18500;43.618;1.474;2023-03-08T09:14:11;614.97;;;569.45;;
31974;SDS011;18500;43.618;1.474;2023-03-08T09:16:37;566.58;;;526.22;;
31974;SDS011;18500;43.618;1.474;2023-03-08T09:19:03;737.83;;;677.75;;
31974;SDS011;18500;43.618;1.474;2023-03-08T09:21:29;443.23;;;413.27;;
31974;SDS011;18500;43.618;1.474;2023-03-08T09:24:00;645.63;;;596.42;;
31974;SDS011;18500;43.618;1.474;2023-03-08T09:26:29;564.00;;;524.78;;
31974;SDS011;18500;43.618;1.474;2023-03-08T09:28:58;527.20;;;489.90;;
31974;SDS011;18500;43.618;1.474;2023-03-08T09:31:29;576.47;;;535.60;;
31974;SDS011;18500;43.618;1.474;2023-03-08T09:33:55;787.25;;;727.40;;
31974;SDS011;18500;43.618;1.474;2023-03-08T09:36:22;817.30;;;744.13;;
31974;SDS011;18500;43.618;1.474;2023-03-08T09:38:48;954.92;;;865.42;;
31974;SDS011;18500;43.618;1.474;2023-03-08T09:46:56;1076.00;;;974.70;;
31974;SDS011;18500;43.618;1.474;2023-03-08T09:49:31;1050.35;;;958.33;;
31974;SDS011;18500;43.618;1.474;2023-03-08T09:54:43;886.10;;;815.80;;
31974;SDS011;18500;43.618;1.474;2023-03-08T09:57:12;1019.03;;;922.10;;
31974;SDS011;18500;43.618;1.474;2023-03-08T10:07:55;1056.13;;;949.63;;
31974;SDS011;18500;43.618;1.474;2023-03-08T10:11:09;1000.35;;;897.30;;
31974;SDS011;18500;43.618;1.474;2023-03-08T10:13:47;977.17;;;878.85;;
31974;SDS011;18500;43.618;1.474;2023-03-08T10:21:35;976.17;;;884.17;;
31974;SDS011;18500;43.618;1.474;2023-03-08T10:24:19;1058.35;;;951.40;;
31974;SDS011;18500;43.618;1.474;2023-03-08T10:29:51;987.25;;;891.05;;
31974;SDS011;18500;43.618;1.474;2023-03-08T10:32:21;1056.57;;;953.88;;
31974;SDS011;18500;43.618;1.474;2023-03-08T10:34:48;1093.05;;;982.53;;
31974;SDS011;18500;43.618;1.474;2023-03-08T10:37:14;1074.47;;;967.25;;
31974;SDS011;18500;43.618;1.474;2023-03-08T10:39:50;1124.90;;;998.47;;
31974;SDS011;18500;43.618;1.474;2023-03-08T10:42:23;1141.63;;;999.90;;
31974;SDS011;18500;43.618;1.474;2023-03-08T10:44:58;1029.68;;;926.67;;
31974;SDS011;18500;43.618;1.474;2023-03-08T10:52:38;1115.28;;;992.65;;
31974;SDS011;18500;43.618;1.474;2023-03-08T10:57:39;894.22;;;808.25;;
31974;SDS011;18500;43.618;1.474;2023-03-08T11:02:45;918.80;;;837.03;;
31974;SDS011;18500;43.618;1.474;2023-03-08T11:05:22;838.33;;;764.40;;
31974;SDS011;18500;43.618;1.474;2023-03-08T11:07:54;768.15;;;706.50;;
31974;SDS011;18500;43.618;1.474;2023-03-08T11:10:23;979.25;;;882.92;;
31974;SDS011;18500;43.618;1.474;2023-03-08T11:15:55;1064.70;;;955.65;;
31974;SDS011;18500;43.618;1.474;2023-03-08T11:18:34;1180.88;;;999.90;;
31974;SDS011;18500;43.618;1.474;2023-03-08T11:26:57;923.42;;;839.15;;
31974;SDS011;18500;43.618;1.474;2023-03-08T11:35:44;902.83;;;820.40;;
31974;SDS011;18500;43.618;1.474;2023-03-08T11:38:36;773.42;;;709.03;;
31974;SDS011;18500;43.618;1.474;2023-03-08T11:55:41;999.33;;;901.47;;
31974;SDS011;18500;43.618;1.474;2023-03-08T12:01:26;981.10;;;891.35;;
31974;SDS011;18500;43.618;1.474;2023-03-08T12:04:17;1186.30;;;999.90;;
31974;SDS011;18500;43.618;1.474;2023-03-08T12:07:14;1295.75;;;999.90;;
31974;SDS011;18500;43.618;1.474;2023-03-08T12:09:51;1159.10;;;999.90;;
31974;SDS011;18500;43.618;1.474;2023-03-08T12:12:34;1434.30;;;999.90;;
31974;SDS011;18500;43.618;1.474;2023-03-08T12:21:22;1886.55;;;999.90;;
31974;SDS011;18500;43.618;1.474;2023-03-08T12:26:45;1527.18;;;999.90;;
31974;SDS011;18500;43.618;1.474;2023-03-08T12:31:55;1259.03;;;999.90;;
31974;SDS011;18500;43.618;1.474;2023-03-08T12:36:52;1390.97;;;999.90;;
31974;SDS011;18500;43.618;1.474;2023-03-08T12:44:35;1297.90;;;999.90;;
31974;SDS011;18500;43.618;1.474;2023-03-08T12:49:40;1341.82;;;999.90;;
31974;SDS011;18500;43.618;1.474;2023-03-08T13:02:44;1145.15;;;995.35;;
31974;SDS011;18500;43.618;1.474;2023-03-08T13:05:27;1122.78;;;996.70;;
31974;SDS011;18500;43.618;1.474;2023-03-08T13:08:00;1145.82;;;990.80;;
31974;SDS011;18500;43.618;1.474;2023-03-08T13:16:21;1337.07;;;999.90;;
31974;SDS011;18500;43.618;1.474;2023-03-08T13:18:48;1395.68;;;999.90;;
31974;SDS011;18500;43.618;1.474;2023-03-08T13:21:35;951.78;;;862.58;;
31974;SDS011;18500;43.618;1.474;2023-03-08T13:24:15;677.40;;;627.60;;
31974;SDS011;18500;43.618;1.474;2023-03-08T13:29:59;822.78;;;753.40;;
31974;SDS011;18500;43.618;1.474;2023-03-08T13:32:41;1035.43;;;933.13;;
31974;SDS011;18500;43.618;1.474;2023-03-08T13:35:13;983.55;;;891.08;;
31974;SDS011;18500;43.618;1.474;2023-03-08T13:40:17;931.05;;;846.53;;
31974;SDS011;18500;43.618;1.474;2023-03-08T13:42:53;998.47;;;902.78;;
31974;SDS011;18500;43.618;1.474;2023-03-08T13:47:53;1002.72;;;904.13;;
31974;SDS011;18500;43.618;1.474;2023-03-08T13:52:57;977.88;;;882.70;;
31974;SDS011;18500;43.618;1.474;2023-03-08T13:55:26;1045.22;;;921.35;;
31974;SDS011;18500;43.618;1.474;2023-03-08T13:57:57;968.58;;;874.95;;
31974;SDS011;18500;43.618;1.474;2023-03-08T14:00:27;960.63;;;865.67;;
31974;SDS011;18500;43.618;1.474;2023-03-08T14:02:58;1234.10;;;994.47;;
31974;SDS011;18500;43.618;1.474;2023-03-08T14:05:26;1549.32;;;999.90;;
31974;SDS011;18500;43.618;1.474;2023-03-08T14:08:01;1562.97;;;999.90;;
31974;SDS011;18500;43.618;1.474;2023-03-08T14:10:40;1640.32;;;999.90;;
31974;SDS011;18500;43.618;1.474;2023-03-08T14:13:15;1638.35;;;999.90;;
31974;SDS011;18500;43.618;1.474;2023-03-08T14:15:53;1596.22;;;999.90;;
31974;SDS011;18500;43.618;1.474;2023-03-08T14:21:06;1570.57;;;999.90;;
31974;SDS011;18500;43.618;1.474;2023-03-08T14:23:49;1129.53;;;999.90;;
31974;SDS011;18500;43.618;1.474;2023-03-08T14:29:17;1348.25;;;999.90;;
31974;SDS011;18500;43.618;1.474;2023-03-08T14:31:51;1457.05;;;999.90;;
31974;SDS011;18500;43.618;1.474;2023-03-08T14:34:23;1172.68;;;999.90;;
31974;SDS011;18500;43.618;1.474;2023-03-08T14:37:01;1221.57;;;999.90;;
31974;SDS011;18500;43.618;1.474;2023-03-08T14:39:30;1297.60;;;999.90;;
31974;SDS011;18500;43.618;1.474;2023-03-08T14:42:06;1353.63;;;999.90;;
31974;SDS011;18500;43.618;1.474;2023-03-08T14:44:48;1343.45;;;999.90;;
31974;SDS011;18500;43.618;1.474;2023-03-08T14:47:23;1335.13;;;999.90;;
31974;SDS011;18500;43.618;1.474;2023-03-08T14:52:28;1389.88;;;999.90;;
31974;SDS011;18500;43.618;1.474;2023-03-08T14:54:55;1489.30;;;999.90;;
31974;SDS011;18500;43.618;1.474;2023-03-08T14:57:24;1407.32;;;999.90;;
31974;SDS011;18500;43.618;1.474;2023-03-08T14:59:51;1332.88;;;999.90;;
31974;SDS011;18500;43.618;1.474;2023-03-08T15:02:20;1364.90;;;999.90;;
31974;SDS011;18500;43.618;1.474;2023-03-08T15:04:45;1474.60;;;999.90;;
31974;SDS011;18500;43.618;1.474;2023-03-08T15:07:21;1139.32;;;999.38;;
31974;SDS011;18500;43.618;1.474;2023-03-08T15:09:48;1141.80;;;996.20;;
31974;SDS011;18500;43.618;1.474;2023-03-08T15:12:15;1195.57;;;999.90;;
31974;SDS011;18500;43.618;1.474;2023-03-08T15:14:42;1103.10;;;982.45;;
31974;SDS011;18500;43.618;1.474;2023-03-08T15:17:08;1172.05;;;999.47;;
31974;SDS011;18500;43.618;1.474;2023-03-08T15:19:33;1602.53;;;999.90;;
31974;SDS011;18500;43.618;1.474;2023-03-08T15:21:59;1376.18;;;999.90;;
31974;SDS011;18500;43.618;1.474;2023-03-08T15:24:25;1564.38;;;999.90;;
31974;SDS011;18500;43.618;1.474;2023-03-08T15:26:51;1724.75;;;999.90;;
31974;SDS011;18500;43.618;1.474;2023-03-08T15:29:26;1694.07;;;999.90;;
31974;SDS011;18500;43.618;1.474;2023-03-08T15:31:54;1686.03;;;999.90;;
31974;SDS011;18500;43.618;1.474;2023-03-08T15:34:20;1712.63;;;999.90;;
31974;SDS011;18500;43.618;1.474;2023-03-08T15:36:47;1729.97;;;999.90;;
31974;SDS011;18500;43.618;1.474;2023-03-08T15:39:13;1675.55;;;999.90;;
31974;SDS011;18500;43.618;1.474;2023-03-08T15:41:39;1670.15;;;999.90;;
31974;SDS011;18500;43.618;1.474;2023-03-08T15:44:05;1701.43;;;999.90;;
31974;SDS011;18500;43.618;1.474;2023-03-08T15:46:31;1694.90;;;999.90;;
31974;SDS011;18500;43.618;1.474;2023-03-08T15:48:56;1692.80;;;999.90;;
31974;SDS011;18500;43.618;1.474;2023-03-08T15:51:23;1444.53;;;999.90;;
31974;SDS011;18500;43.618;1.474;2023-03-08T15:53:53;1580.28;;;999.90;;
31974;SDS011;18500;43.618;1.474;2023-03-08T15:56:19;1459.75;;;999.90;;
31974;SDS011;18500;43.618;1.474;2023-03-08T15:58:46;1046.75;;;940.83;;
31974;SDS011;18500;43.618;1.474;2023-03-08T16:01:13;1142.93;;;994.88;;
31974;SDS011;18500;43.618;1.474;2023-03-08T16:03:38;1298.60;;;998.70;;
31974;SDS011;18500;43.618;1.474;2023-03-08T16:06:08;1057.15;;;950.08;;
31974;SDS011;18500;43.618;1.474;2023-03-08T16:08:34;1045.10;;;937.78;;
31974;SDS011;18500;43.618;1.474;2023-03-08T16:11:00;867.05;;;786.35;;
31974;SDS011;18500;43.618;1.474;2023-03-08T16:13:29;909.08;;;823.63;;
31974;SDS011;18500;43.618;1.474;2023-03-08T16:15:58;1274.70;;;999.90;;
31974;SDS011;18500;43.618;1.474;2023-03-08T16:18:26;960.70;;;871.58;;
31974;SDS011;18500;43.618;1.474;2023-03-08T16:20:53;1070.38;;;960.78;;
31974;SDS011;18500;43.618;1.474;2023-03-08T16:23:19;1114.88;;;996.17;;
31974;SDS011;18500;43.618;1.474;2023-03-08T16:25:44;1319.10;;;999.90;;
31974;SDS011;18500;43.618;1.474;2023-03-08T16:28:10;1324.63;;;999.90;;
31974;SDS011;18500;43.618;1.474;2023-03-08T16:30:36;1295.88;;;999.90;;
31974;SDS011;18500;43.618;1.474;2023-03-08T16:33:06;1201.80;;;999.90;;
31974;SDS011;18500;43.618;1.474;2023-03-08T16:35:32;1572.20;;;999.90;;
31974;SDS011;18500;43.618;1.474;2023-03-08T16:37:57;1490.75;;;999.90;;
31974;SDS011;18500;43.618;1.474;2023-03-08T16:40:23;1518.38;;;999.90;;
31974;SDS011;18500;43.618;1.474;2023-03-08T16:42:54;1636.85;;;999.90;;
31974;SDS011;18500;43.618;1.474;2023-03-08T16:45:20;1542.45;;;999.90;;
31974;SDS011;18500;43.618;1.474;2023-03-08T16:47:46;1626.47;;;999.90;;
31974;SDS011;18500;43.618;1.474;2023-03-08T16:50:12;1678.30;;;999.90;;
31974;SDS011;18500;43.618;1.474;2023-03-08T16:52:38;1493.05;;;999.90;;
31974;SDS011;18500;43.618;1.474;2023-03-08T16:55:03;1540.15;;;999.90;;
31974;SDS011;18500;43.618;1.474;2023-03-08T16:57:30;1373.20;;;999.90;;
31974;SDS011;18500;43.618;1.474;2023-03-08T16:59:55;1321.10;;;999.90;;
31974;SDS011;18500;43.618;1.474;2023-03-08T17:02:21;1389.15;;;999.90;;
31974;SDS011;18500;43.618;1.474;2023-03-08T17:04:47;1469.45;;;999.90;;
31974;SDS011;18500;43.618;1.474;2023-03-08T17:07:13;1404.50;;;999.90;;
31974;SDS011;18500;43.618;1.474;2023-03-08T17:09:40;1397.85;;;999.90;;
31974;SDS011;18500;43.618;1.474;2023-03-08T17:12:06;1319.32;;;999.90;;
31974;SDS011;18500;43.618;1.474;2023-03-08T17:14:32;1319.15;;;999.90;;
31974;SDS011;18500;43.618;1.474;2023-03-08T17:16:58;1301.18;;;999.90;;
31974;SDS011;18500;43.618;1.474;2023-03-08T17:19:24;1141.03;;;999.90;;
31974;SDS011;18500;43.618;1.474;2023-03-08T17:21:50;1159.00;;;999.90;;
31974;SDS011;18500;43.618;1.474;2023-03-08T17:24:16;1129.88;;;997.00;;
31974;SDS011;18500;43.618;1.474;2023-03-08T17:26:43;1068.88;;;954.25;;
31974;SDS011;18500;43.618;1.474;2023-03-08T17:29:11;1132.55;;;996.92;;
31974;SDS011;18500;43.618;1.474;2023-03-08T17:31:37;1016.05;;;913.30;;
31974;SDS011;18500;43.618;1.474;2023-03-08T17:34:02;1116.88;;;998.50;;
31974;SDS011;18500;43.618;1.474;2023-03-08T17:36:28;1108.53;;;986.53;;
31974;SDS011;18500;43.618;1.474;2023-03-08T17:38:54;1002.97;;;892.67;;
31974;SDS011;18500;43.618;1.474;2023-03-08T17:41:20;1073.28;;;963.80;;
31974;SDS011;18500;43.618;1.474;2023-03-08T17:43:46;951.05;;;861.58;;
31974;SDS011;18500;43.618;1.474;2023-03-08T17:46:14;892.35;;;810.58;;
31974;SDS011;18500;43.618;1.474;2023-03-08T17:48:45;1056.22;;;949.28;;
31974;SDS011;18500;43.618;1.474;2023-03-08T17:51:12;1216.72;;;999.90;;
31974;SDS011;18500;43.618;1.474;2023-03-08T17:53:40;1999.90;;;999.90;;
31974;SDS011;18500;43.618;1.474;2023-03-08T17:56:07;1771.47;;;999.90;;
31974;SDS011;18500;43.618;1.474;2023-03-08T17:58:34;1028.07;;;918.58;;
31974;SDS011;18500;43.618;1.474;2023-03-08T18:01:08;1097.38;;;983.47;;
31974;SDS011;18500;43.618;1.474;2023-03-08T18:03:53;1097.07;;;987.58;;
31974;SDS011;18500;43.618;1.474;2023-03-08T18:09:07;1118.32;;;998.33;;
31974;SDS011;18500;43.618;1.474;2023-03-08T18:11:37;1132.97;;;999.42;;
31974;SDS011;18500;43.618;1.474;2023-03-08T18:14:09;1081.15;;;975.05;;
31974;SDS011;18500;43.618;1.474;2023-03-08T18:16:37;1159.03;;;999.90;;
31974;SDS011;18500;43.618;1.474;2023-03-08T18:19:03;1135.10;;;999.90;;
31974;SDS011;18500;43.618;1.474;2023-03-08T18:21:30;1073.88;;;973.42;;
31974;SDS011;18500;43.618;1.474;2023-03-08T18:23:57;1045.38;;;949.63;;
31974;SDS011;18500;43.618;1.474;2023-03-08T18:26:23;906.78;;;832.10;;
31974;SDS011;18500;43.618;1.474;2023-03-08T18:28:49;837.72;;;772.28;;
31974;SDS011;18500;43.618;1.474;2023-03-08T18:31:16;962.95;;;882.22;;
31974;SDS011;18500;43.618;1.474;2023-03-08T18:33:44;886.97;;;815.05;;
31974;SDS011;18500;43.618;1.474;2023-03-08T18:36:10;763.33;;;705.85;;
31974;SDS011;18500;43.618;1.474;2023-03-08T18:38:36;762.70;;;706.53;;
31974;SDS011;18500;43.618;1.474;2023-03-08T18:41:21;770.17;;;710.22;;
31974;SDS011;18500;43.618;1.474;2023-03-08T18:43:52;722.28;;;667.63;;
31974;SDS011;18500;43.618;1.474;2023-03-08T18:46:19;748.28;;;691.20;;
31974;SDS011;18500;43.618;1.474;2023-03-08T18:48:52;834.67;;;766.15;;
31974;SDS011;18500;43.618;1.474;2023-03-08T18:51:23;773.55;;;713.25;;
31974;SDS011;18500;43.618;1.474;2023-03-08T18:53:48;885.28;;;810.13;;
31974;SDS011;18500;43.618;1.474;2023-03-08T18:56:14;949.75;;;863.30;;
31974;SDS011;18500;43.618;1.474;2023-03-08T18:58:41;766.95;;;705.85;;
31974;SDS011;18500;43.618;1.474;2023-03-08T19:01:13;698.05;;;644.88;;
31974;SDS011;18500;43.618;1.474;2023-03-08T19:03:40;739.88;;;682.00;;
31974;SDS011;18500;43.618;1.474;2023-03-08T19:06:07;899.53;;;817.75;;
31974;SDS011;18500;43.618;1.474;2023-03-08T19:08:33;737.28;;;681.25;;
31974;SDS011;18500;43.618;1.474;2023-03-08T19:11:08;820.92;;;758.03;;
31974;SDS011;18500;43.618;1.474;2023-03-08T19:13:35;770.85;;;707.35;;
31974;SDS011;18500;43.618;1.474;2023-03-08T19:16:00;790.63;;;724.05;;
31974;SDS011;18500;43.618;1.474;2023-03-08T19:18:26;824.95;;;758.10;;
31974;SDS011;18500;43.618;1.474;2023-03-08T19:20:52;811.95;;;743.67;;
31974;SDS011;18500;43.618;1.474;2023-03-08T19:23:17;858.88;;;784.03;;
31974;SDS011;18500;43.618;1.474;2023-03-08T19:25:43;783.60;;;719.90;;
31974;SDS011;18500;43.618;1.474;2023-03-08T19:28:27;770.95;;;705.13;;
31974;SDS011;18500;43.618;1.474;2023-03-08T19:30:53;946.78;;;850.33;;
31974;SDS011;18500;43.618;1.474;2023-03-08T19:33:18;1158.22;;;957.13;;
31974;SDS011;18500;43.618;1.474;2023-03-08T19:35:44;1064.65;;;932.85;;
31974;SDS011;18500;43.618;1.474;2023-03-08T19:38:10;987.17;;;891.65;;
31974;SDS011;18500;43.618;1.474;2023-03-08T19:40:35;1058.75;;;936.33;;
31974;SDS011;18500;43.618;1.474;2023-03-08T19:43:02;1051.93;;;941.03;;
31974;SDS011;18500;43.618;1.474;2023-03-08T19:45:28;915.25;;;831.47;;
31974;SDS011;18500;43.618;1.474;2023-03-08T19:47:54;1286.70;;;998.33;;
31974;SDS011;18500;43.618;1.474;2023-03-08T19:50:19;1500.45;;;999.90;;
31974;SDS011;18500;43.618;1.474;2023-03-08T19:52:45;1544.60;;;999.90;;
31974;SDS011;18500;43.618;1.474;2023-03-08T19:55:11;1321.82;;;999.90;;
31974;SDS011;18500;43.618;1.474;2023-03-08T19:57:36;1371.53;;;999.90;;
31974;SDS011;18500;43.618;1.474;2023-03-08T20:00:03;1263.95;;;999.90;;
31974;SDS011;18500;43.618;1.474;2023-03-08T20:02:29;1274.82;;;999.90;;
31974;SDS011;18500;43.618;1.474;2023-03-08T20:04:55;1146.75;;;999.90;;
31974;SDS011;18500;43.618;1.474;2023-03-08T20:07:21;1147.10;;;999.90;;
31974;SDS011;18500;43.618;1.474;2023-03-08T20:09:50;1274.32;;;999.42;;
31974;SDS011;18500;43.618;1.474;2023-03-08T20:12:16;1727.57;;;999.90;;
31974;SDS011;18500;43.618;1.474;2023-03-08T20:14:42;1733.82;;;999.90;;
31974;SDS011;18500;43.618;1.474;2023-03-08T20:17:08;1738.28;;;999.90;;
31974;SDS011;18500;43.618;1.474;2023-03-08T20:19:34;1609.50;;;999.90;;
31974;SDS011;18500;43.618;1.474;2023-03-08T20:22:00;1567.05;;;999.90;;
31974;SDS011;18500;43.618;1.474;2023-03-08T20:24:28;1444.25;;;999.90;;
31974;SDS011;18500;43.618;1.474;2023-03-08T20:26:54;1124.47;;;996.47;;
31974;SDS011;18500;43.618;1.474;2023-03-08T20:29:20;994.53;;;890.90;;
31974;SDS011;18500;43.618;1.474;2023-03-08T20:31:46;824.97;;;745.20;;
31974;SDS011;18500;43.618;1.474;2023-03-08T20:34:12;824.70;;;750.42;;
31974;SDS011;18500;43.618;1.474;2023-03-08T20:36:39;910.45;;;820.60;;
31974;SDS011;18500;43.618;1.474;2023-03-08T20:39:04;1104.28;;;989.20;;
31974;SDS011;18500;43.618;1.474;2023-03-08T20:41:30;1050.53;;;942.65;;
31974;SDS011;18500;43.618;1.474;2023-03-08T20:43:56;1094.68;;;977.13;;
31974;SDS011;18500;43.618;1.474;2023-03-08T20:46:23;843.17;;;766.13;;
31974;SDS011;18500;43.618;1.474;2023-03-08T20:48:51;786.50;;;714.47;;
31974;SDS011;18500;43.618;1.474;2023-03-08T20:51:18;884.90;;;806.45;;
31974;SDS011;18500;43.618;1.474;2023-03-08T20:53:47;915.53;;;825.42;;
31974;SDS011;18500;43.618;1.474;2023-03-08T20:56:15;856.13;;;782.00;;
31974;SDS011;18500;43.618;1.474;2023-03-08T20:58:42;971.38;;;879.05;;
31974;SDS011;18500;43.618;1.474;2023-03-08T21:01:11;877.63;;;799.28;;
31974;SDS011;18500;43.618;1.474;2023-03-08T21:03:39;917.15;;;836.80;;
31974;SDS011;18500;43.618;1.474;2023-03-08T21:06:27;810.10;;;746.25;;
31974;SDS011;18500;43.618;1.474;2023-03-08T21:08:54;863.45;;;789.05;;
31974;SDS011;18500;43.618;1.474;2023-03-08T21:11:20;767.97;;;702.20;;
31974;SDS011;18500;43.618;1.474;2023-03-08T21:13:47;704.67;;;649.40;;
31974;SDS011;18500;43.618;1.474;2023-03-08T21:16:14;647.65;;;598.47;;
31974;SDS011;18500;43.618;1.474;2023-03-08T21:18:41;650.35;;;602.72;;
31974;SDS011;18500;43.618;1.474;2023-03-08T21:21:15;668.45;;;615.10;;
31974;SDS011;18500;43.618;1.474;2023-03-08T21:23:42;977.83;;;886.55;;
31974;SDS011;18500;43.618;1.474;2023-03-08T21:26:08;950.50;;;867.88;;
31974;SDS011;18500;43.618;1.474;2023-03-08T21:28:34;1083.15;;;972.50;;
31974;SDS011;18500;43.618;1.474;2023-03-08T21:30:59;1090.88;;;980.17;;
31974;SDS011;18500;43.618;1.474;2023-03-08T21:33:25;1129.22;;;999.90;;
31974;SDS011;18500;43.618;1.474;2023-03-08T21:35:50;849.85;;;776.05;;
31974;SDS011;18500;43.618;1.474;2023-03-08T21:38:16;829.95;;;758.55;;
31974;SDS011;18500;43.618;1.474;2023-03-08T21:40:42;885.03;;;805.25;;
31974;SDS011;18500;43.618;1.474;2023-03-08T21:43:08;979.22;;;879.13;;
31974;SDS011;18500;43.618;1.474;2023-03-08T21:45:40;795.05;;;725.97;;
31974;SDS011;18500;43.618;1.474;2023-03-08T21:50:32;840.22;;;768.33;;
31974;SDS011;18500;43.618;1.474;2023-03-08T21:52:57;1017.55;;;914.03;;
31974;SDS011;18500;43.618;1.474;2023-03-08T21:55:23;1057.18;;;948.50;;
31974;SDS011;18500;43.618;1.474;2023-03-08T21:57:49;1068.25;;;941.28;;
31974;SDS011;18500;43.618;1.474;2023-03-08T22:00:14;1259.93;;;936.75;;
31974;SDS011;18500;43.618;1.474;2023-03-08T22:02:41;1298.38;;;999.90;;
31974;SDS011;18500;43.618;1.474;2023-03-08T22:05:11;1259.53;;;994.25;;
31974;SDS011;18500;43.618;1.474;2023-03-08T22:07:37;1205.75;;;990.13;;
31974;SDS011;18500;43.618;1.474;2023-03-08T22:10:03;1233.22;;;999.90;;
31974;SDS011;18500;43.618;1.474;2023-03-08T22:12:29;1195.75;;;999.90;;
31974;SDS011;18500;43.618;1.474;2023-03-08T22:14:55;1172.05;;;999.90;;
31974;SDS011;18500;43.618;1.474;2023-03-08T22:17:20;1097.10;;;969.97;;
31974;SDS011;18500;43.618;1.474;2023-03-08T22:19:46;1088.43;;;962.65;;
31974;SDS011;18500;43.618;1.474;2023-03-08T22:22:11;1130.05;;;990.10;;
31974;SDS011;18500;43.618;1.474;2023-03-08T22:24:37;1082.93;;;964.17;;
31974;SDS011;18500;43.618;1.474;2023-03-08T22:27:03;1084.78;;;967.50;;
31974;SDS011;18500;43.618;1.474;2023-03-08T22:29:29;1078.75;;;964.38;;
31974;SDS011;18500;43.618;1.474;2023-03-08T22:31:55;1082.95;;;968.70;;
31974;SDS011;18500;43.618;1.474;2023-03-08T22:34:21;1084.22;;;968.15;;
31974;SDS011;18500;43.618;1.474;2023-03-08T22:36:47;1110.20;;;993.05;;
31974;SDS011;18500;43.618;1.474;2023-03-08T22:39:13;1036.07;;;939.83;;
